Time;durP1;ratioP1;P1;durP2;ratioP2;P2;SDS_P1;SDS_P2;PMS_P1;PMS_P2;Temp;Humidity;BMP_temperature;BMP_pressure;BME280_temperature;BME280_humidity;BME280_pressure;Samples;Min_cycle;Max_cycle;Signal;HPM_P1;HPM_P2
2022/11/21 00:01:49;;;;;;;10.27;4.15;;;;;;;6.10;100.00;100327.63;5067992;28;20112;-72
2022/11/21 00:04:15;;;;;;;12.35;4.13;;;;;;;6.09;100.00;100338.59;5059609;28;20120;-72
2022/11/21 00:06:40;;;;;;;13.93;4.60;;;;;;;6.08;100.00;100337.75;5066499;28;20085;-71
2022/11/21 00:09:05;;;;;;;11.48;4.40;;;;;;;6.04;100.00;100336.53;5065483;28;20456;-70
2022/11/21 00:11:30;;;;;;;11.15;4.88;;;;;;;6.04;100.00;100355.34;5055857;28;20037;-71
2022/11/21 00:13:56;;;;;;;12.30;4.10;;;;;;;6.03;100.00;100353.66;5055571;28;20029;-73
2022/11/21 00:16:21;;;;;;;11.95;4.22;;;;;;;6.03;100.00;100350.97;5051085;28;20388;-71
2022/11/21 00:18:47;;;;;;;12.02;4.80;;;;;;;6.00;100.00;100351.41;5066815;28;20028;-71
2022/11/21 00:21:15;;;;;;;14.50;5.13;;;;;;;5.96;100.00;100352.81;5072092;28;20111;-70
2022/11/21 00:23:41;;;;;;;15.75;5.10;;;;;;;5.95;100.00;100362.72;5074352;28;20559;-70
2022/11/21 00:26:08;;;;;;;18.65;5.10;;;;;;;5.96;100.00;100358.19;5066803;28;20029;-71
2022/11/21 00:28:33;;;;;;;19.30;5.38;;;;;;;5.93;100.00;100351.34;5063213;28;20055;-72
2022/11/21 00:30:58;;;;;;;16.15;4.88;;;;;;;5.96;100.00;100355.50;5070204;28;20440;-69
2022/11/21 00:33:24;;;;;;;19.35;5.20;;;;;;;5.95;100.00;100354.69;5056320;28;20496;-71
2022/11/21 00:35:49;;;;;;;18.33;4.22;;;;;;;5.93;100.00;100353.22;5056301;28;20119;-70
2022/11/21 00:38:15;;;;;;;16.70;3.42;;;;;;;5.93;100.00;100345.97;5054339;28;20071;-70
2022/11/21 00:40:44;;;;;;;15.85;3.72;;;;;;;5.94;100.00;100349.50;5054452;28;20029;-71
2022/11/21 00:43:10;;;;;;;16.08;4.18;;;;;;;5.94;100.00;100349.50;5073879;28;20086;-70
2022/11/21 00:45:35;;;;;;;19.00;4.43;;;;;;;5.92;100.00;100341.66;5060544;28;20037;-69
2022/11/21 00:48:00;;;;;;;18.40;4.90;;;;;;;5.90;100.00;100335.66;5055049;28;20043;-72
2022/11/21 00:50:26;;;;;;;19.17;4.38;;;;;;;5.91;100.00;100333.81;5058861;28;20021;-71
2022/11/21 00:52:55;;;;;;;15.68;4.35;;;;;;;5.90;100.00;100332.97;5071136;28;20040;-71
2022/11/21 00:55:21;;;;;;;17.70;4.22;;;;;;;5.92;100.00;100341.66;5064767;28;20067;-71
2022/11/21 00:57:47;;;;;;;14.80;4.07;;;;;;;5.93;100.00;100347.84;5066919;28;20500;-70
2022/11/21 01:00:16;;;;;;;17.95;4.15;;;;;;;5.91;100.00;100339.19;5069562;28;20029;-72
2022/11/21 01:02:42;;;;;;;18.65;4.45;;;;;;;5.91;100.00;100336.50;5071526;28;20024;-71
2022/11/21 01:05:07;;;;;;;14.85;3.97;;;;;;;5.89;100.00;100335.84;5071804;28;20024;-72
2022/11/21 01:07:33;;;;;;;16.27;4.75;;;;;;;5.91;100.00;100344.56;5064328;28;20105;-70
2022/11/21 01:09:58;;;;;;;15.88;4.15;;;;;;;5.87;100.00;100346.81;5061247;28;20393;-73
2022/11/21 01:12:23;;;;;;;19.33;4.72;;;;;;;5.88;100.00;100343.09;5056031;28;20024;-71
2022/11/21 01:14:48;;;;;;;15.00;4.10;;;;;;;5.79;100.00;100347.84;5086636;28;20024;-71
2022/11/21 01:17:14;;;;;;;20.10;4.80;;;;;;;5.80;100.00;100344.13;5086887;28;20029;-69
2022/11/21 01:19:39;;;;;;;14.70;4.20;;;;;;;5.77;100.00;100341.88;5068571;28;20033;-70
2022/11/21 01:22:05;;;;;;;16.15;4.35;;;;;;;5.74;100.00;100344.16;5063528;28;20528;-73
2022/11/21 01:24:30;;;;;;;12.32;3.53;;;;;;;5.72;100.00;100344.31;5054503;28;20036;-73
2022/11/21 01:26:55;;;;;;;17.10;5.05;;;;;;;5.72;100.00;100347.00;5066999;28;20392;-73
2022/11/21 01:29:20;;;;;;;18.33;4.70;;;;;;;5.73;100.00;100343.28;5070642;28;20060;-70
2022/11/21 01:31:46;;;;;;;20.42;4.97;;;;;;;5.72;100.00;100344.31;5072960;28;20032;-71
2022/11/21 01:34:13;;;;;;;16.08;4.50;;;;;;;5.68;100.00;100340.41;5066099;28;20049;-73
2022/11/21 01:36:39;;;;;;;13.30;4.47;;;;;;;5.65;100.00;100335.47;5058555;28;20029;-73
2022/11/21 01:39:06;;;;;;;14.23;4.22;;;;;;;5.59;100.00;100344.31;5073451;28;20048;-72
2022/11/21 01:41:41;;;;;;;11.73;4.07;;;;;;;5.61;100.00;100340.38;5071867;28;20032;-73
2022/11/21 01:44:16;;;;;;;17.27;4.18;;;;;;;5.63;100.00;100338.34;5069216;28;20413;-71
2022/11/21 01:46:42;;;;;;;14.73;4.30;;;;;;;5.62;100.00;100342.06;5068114;28;20036;-72
2022/11/21 01:49:12;;;;;;;10.35;3.92;;;;;;;5.56;100.00;100342.88;5073593;28;20498;-72
2022/11/21 01:51:55;;;;;;;12.80;4.18;;;;;;;5.56;100.00;100345.56;5072582;28;20028;-70
2022/11/21 01:54:32;;;;;;;12.98;4.32;;;;;;;5.55;100.00;100346.56;5063353;28;20036;-72
2022/11/21 01:57:14;;;;;;;14.43;3.78;;;;;;;5.45;100.00;100341.63;5062160;28;20032;-71
2022/11/21 01:59:45;;;;;;;13.77;4.35;;;;;;;5.43;100.00;100338.28;5073261;28;20499;-71
2022/11/21 02:02:13;;;;;;;9.43;3.60;;;;;;;5.37;100.00;100325.69;5066770;28;20031;-73
2022/11/21 02:04:42;;;;;;;13.82;4.07;;;;;;;5.32;100.00;100337.03;5062960;28;20365;-72
2022/11/21 02:07:09;;;;;;;12.15;4.45;;;;;;;5.29;100.00;100342.00;5055857;28;20116;-73
2022/11/21 02:09:38;;;;;;;13.80;3.67;;;;;;;5.22;100.00;100335.78;5055843;28;20036;-70
2022/11/21 02:12:08;;;;;;;12.00;4.05;;;;;;;5.26;100.00;100339.72;5064746;28;20033;-72
2022/11/21 02:14:36;;;;;;;13.80;4.35;;;;;;;5.21;100.00;100347.53;5073176;28;20420;-73
2022/11/21 02:17:05;;;;;;;12.15;4.47;;;;;;;5.20;100.00;100346.72;5071956;28;20033;-72
2022/11/21 02:19:46;;;;;;;12.13;4.20;;;;;;;5.19;100.00;100353.09;5058903;28;20044;-73
2022/11/21 02:22:37;;;;;;;14.07;4.63;;;;;;;5.24;100.00;100361.38;5068412;28;20036;-72
2022/11/21 02:25:03;;;;;;;11.80;3.80;;;;;;;5.21;100.00;100360.94;5061903;28;20067;-73
2022/11/21 02:27:29;;;;;;;12.77;4.13;;;;;;;5.20;100.00;100360.13;5054255;28;20461;-71
2022/11/21 02:29:54;;;;;;;10.88;3.67;;;;;;;5.20;100.00;100364.66;5052664;28;20044;-71
2022/11/21 02:32:33;;;;;;;11.98;3.70;;;;;;;5.20;100.00;100348.56;5051931;28;20408;-72
2022/11/21 02:34:58;;;;;;;15.77;4.60;;;;;;;5.19;100.00;100349.59;5063966;28;20032;-72
2022/11/21 02:37:23;;;;;;;15.18;4.50;;;;;;;5.13;100.00;100360.13;5069432;28;20495;-72
2022/11/21 02:39:49;;;;;;;7.65;3.65;;;;;;;5.04;100.00;100355.97;5060805;28;20148;-72
2022/11/21 02:42:25;;;;;;;24.60;8.48;;;;;;;5.05;100.00;100351.41;5069600;28;20040;-72
2022/11/21 02:45:15;;;;;;;38.95;11.43;;;;;;;5.06;100.00;100358.44;5052159;28;20116;-71
2022/11/21 02:47:42;;;;;;;31.80;11.25;;;;;;;5.06;100.00;100369.16;5061586;28;20111;-70
2022/11/21 02:50:15;;;;;;;80.35;13.02;;;;;;;5.03;100.00;100365.03;5058655;28;20491;-72
2022/11/21 02:52:40;;;;;;;75.18;13.25;;;;;;;5.03;100.00;100364.19;5061491;28;20089;-73
2022/11/21 02:55:07;;;;;;;45.00;13.13;;;;;;;5.05;100.00;100371.00;5071379;28;20111;-73
2022/11/21 02:57:33;;;;;;;59.17;12.20;;;;;;;5.05;100.00;100362.97;5071900;28;20033;-74
2022/11/21 02:59:59;;;;;;;65.22;12.13;;;;;;;5.05;100.00;100354.91;5061809;28;20032;-70
2022/11/21 03:02:24;;;;;;;87.63;13.52;;;;;;;5.03;100.00;100353.44;5062516;28;20020;-70
2022/11/21 03:04:49;;;;;;;76.93;12.73;;;;;;;5.03;100.00;100354.31;5052142;28;20059;-74
2022/11/21 03:07:15;;;;;;;113.25;15.38;;;;;;;5.00;100.00;100356.53;5058556;28;20033;-71
2022/11/21 03:09:40;;;;;;;111.93;15.23;;;;;;;5.01;100.00;100356.34;5062879;28;20039;-72
2022/11/21 03:12:09;;;;;;;66.85;15.68;;;;;;;5.00;100.00;100359.22;5056312;28;20036;-72
2022/11/21 03:14:35;;;;;;;55.70;16.60;;;;;;;5.01;100.00;100358.19;5071966;28;20028;-71
2022/11/21 03:17:01;;;;;;;59.80;18.05;;;;;;;4.98;100.00;100354.06;5064652;28;20472;-71
2022/11/21 03:19:27;;;;;;;49.80;18.40;;;;;;;4.98;100.00;100354.06;5069427;28;20043;-72
2022/11/21 03:21:53;;;;;;;58.55;19.25;;;;;;;4.98;100.00;100346.00;5070546;28;20043;-73
2022/11/21 03:24:18;;;;;;;45.30;18.48;;;;;;;4.99;100.00;100353.03;5052201;28;20033;-73
2022/11/21 03:26:43;;;;;;;36.42;19.45;;;;;;;4.99;100.00;100353.03;5057120;28;20035;-73
2022/11/21 03:29:08;;;;;;;36.15;18.63;;;;;;;5.02;100.00;100339.22;5062334;28;20116;-72
2022/11/21 03:31:34;;;;;;;36.40;18.17;;;;;;;4.99;100.00;100336.13;5057352;28;20102;-69
2022/11/21 09:54:12;;;;;;;9.70;4.28;;;;;;;5.94;100.00;100076.41;4970880;28;20109;-70
2022/11/21 09:56:41;;;;;;;13.23;4.47;;;;;;;6.02;100.00;100084.25;4972494;28;20027;-70
2022/11/21 09:59:35;;;;;;;9.65;4.45;;;;;;;6.08;100.00;100079.88;4975034;28;20027;-69
2022/11/21 10:02:02;;;;;;;10.40;4.30;;;;;;;6.12;100.00;100073.03;4968914;28;20050;-70
2022/11/21 10:04:28;;;;;;;9.50;4.45;;;;;;;6.14;100.00;100070.94;4974860;28;20037;-70
2022/11/21 10:07:04;;;;;;;10.77;4.03;;;;;;;6.19;100.00;100076.53;4974828;28;20031;-70
2022/11/21 10:09:48;;;;;;;8.60;4.10;;;;;;;6.23;100.00;100073.41;4969497;28;20058;-70
2022/11/21 10:13:10;;;;;;;11.15;4.05;;;;;;;6.24;100.00;100069.69;4971033;28;20030;-70
2022/11/21 10:15:52;;;;;;;8.25;3.97;;;;;;;6.24;100.00;100067.00;4914749;29;20044;-70
2022/11/21 10:18:49;;;;;;;9.43;4.15;;;;;;;6.25;100.00;100057.88;4917115;29;20036;-70
2022/11/21 10:21:14;;;;;;;14.88;4.13;;;;;;;6.26;100.00;100052.28;4969090;28;20047;-70
2022/11/21 10:23:59;;;;;;;13.63;4.00;;;;;;;6.31;100.00;100043.59;4970874;28;20034;-70
2022/11/21 10:26:45;;;;;;;13.23;4.18;;;;;;;6.35;100.00;100039.44;4955507;29;20093;-70
2022/11/21 10:29:18;;;;;;;13.13;4.10;;;;;;;6.43;100.00;100035.66;4955435;28;20066;-70
2022/11/21 10:31:45;;;;;;;8.63;3.60;;;;;;;6.44;100.00;100027.38;4953783;29;20138;-70
2022/11/21 10:34:16;;;;;;;11.35;3.95;;;;;;;6.46;100.00;100025.31;4954940;29;20430;-70
2022/11/21 10:36:48;;;;;;;8.80;3.20;;;;;;;6.48;100.00;100027.78;4959827;28;20050;-70
2022/11/21 10:39:23;;;;;;;10.70;4.13;;;;;;;6.50;100.00;100025.69;4973125;28;20034;-70
2022/11/21 10:41:59;;;;;;;15.65;4.20;;;;;;;6.53;100.00;100026.06;4971642;28;20035;-69
2022/11/21 10:47:26;;;;;;;13.73;3.47;;;;;;;6.56;100.00;100022.94;4955071;29;20046;-70
2022/11/21 10:49:52;;;;;;;10.40;3.35;;;;;;;6.65;100.00;100009.22;4954905;28;20030;-70
2022/11/21 10:52:24;;;;;;;9.15;3.67;;;;;;;6.73;100.00;100014.31;4953621;28;20094;-75
2022/11/21 10:55:02;;;;;;;10.75;3.50;;;;;;;6.82;100.00;100012.19;4949198;29;20043;-70
2022/11/21 10:57:30;;;;;;;13.45;3.53;;;;;;;6.86;100.00;100008.00;4954075;29;20035;-70
2022/11/21 11:00:01;;;;;;;9.73;3.83;;;;;;;6.87;100.00;99994.34;4950383;28;20054;-70
2022/11/21 11:02:27;;;;;;;10.40;3.97;;;;;;;6.94;100.00;100001.53;4950408;28;20587;-70
2022/11/21 11:05:19;;;;;;;11.68;3.75;;;;;;;7.01;100.00;99991.53;4947859;28;20036;-70
2022/11/21 11:08:08;;;;;;;13.75;4.38;;;;;;;7.05;100.00;99988.16;4935011;29;20114;-70
2022/11/21 11:10:41;;;;;;;11.63;3.70;;;;;;;7.05;100.00;99979.25;4934911;29;20391;-70
2022/11/21 11:13:33;;;;;;;13.50;4.20;;;;;;;7.08;100.00;99979.66;4935017;29;20038;-70
2022/11/21 11:16:06;;;;;;;;;;;;;;;7.17;100.00;99972.13;4948599;29;20109;-70
2022/11/21 11:18:38;;;;;;;12.82;3.50;;;;;;;7.17;100.00;99966.72;4954767;28;19966;-70
2022/11/21 11:21:15;;;;;;;12.90;3.83;;;;;;;7.22;100.00;99963.38;4954444;29;20035;-70
2022/11/21 11:23:40;;;;;;;10.25;3.65;;;;;;;7.26;100.00;99960.00;4954605;29;20035;-70
2022/11/21 11:26:24;;;;;;;7.40;3.65;;;;;;;7.27;100.00;99950.84;4952698;28;20098;-70
2022/11/21 11:28:50;;;;;;;11.90;3.45;;;;;;;7.31;100.00;99950.41;4954353;28;20038;-70
2022/11/21 11:31:16;;;;;;;14.75;3.53;;;;;;;7.33;100.00;99948.34;4954620;28;20387;-70
2022/11/21 11:33:53;;;;;;;10.00;3.58;;;;;;;7.37;100.00;99949.53;4953934;29;20031;-70
2022/11/21 11:36:29;;;;;;;9.95;3.75;;;;;;;7.38;100.00;99943.91;4954233;29;20410;-70
2022/11/21 11:38:57;;;;;;;14.35;4.72;;;;;;;7.36;100.00;99927.16;4954609;29;20039;-70
2022/11/21 11:47:45;;;;;;;9.88;3.00;;;;;;;7.40;100.00;99901.44;4935348;29;20501;-70
2022/11/21 11:50:18;;;;;;;9.27;3.00;;;;;;;7.39;100.00;99890.91;4937031;29;20078;-69
2022/11/21 11:53:02;;;;;;;13.90;3.33;;;;;;;7.35;100.00;99890.53;4942763;29;20047;-69
2022/11/21 11:55:59;;;;;;;9.50;3.08;;;;;;;7.37;100.00;99885.75;4968719;28;20066;-69
2022/11/21 11:58:41;;;;;;;11.05;3.20;;;;;;;7.37;100.00;99880.38;4945129;28;20051;-70
2022/11/21 12:01:14;;;;;;;13.43;3.45;;;;;;;7.38;100.00;99873.09;4977920;28;20026;-73
2022/11/21 12:04:00;;;;;;;9.45;3.10;;;;;;;7.36;100.00;99870.63;4968235;28;20039;-71
2022/11/21 12:06:48;;;;;;;13.43;3.03;;;;;;;7.36;100.00;99864.44;4954266;29;20118;-70
2022/11/21 12:09:38;;;;;;;10.82;3.00;;;;;;;7.33;100.00;99848.75;4951095;29;20501;-71
2022/11/21 12:12:10;;;;;;;7.57;3.20;;;;;;;7.31;100.00;99846.28;4952575;28;20814;-70
2022/11/21 12:18:08;;;;;;;10.18;3.22;;;;;;;7.35;100.00;99828.66;4957294;29;20042;-70
2022/11/21 12:20:39;;;;;;;8.95;2.80;;;;;;;7.34;100.00;99818.09;4957519;29;20031;-70
2022/11/21 12:23:06;;;;;;;9.05;3.58;;;;;;;7.35;100.00;99817.88;4947863;29;20119;-70
2022/11/21 12:25:39;;;;;;;7.93;2.50;;;;;;;7.36;100.00;99813.31;4938077;29;20453;-70
2022/11/21 12:28:17;;;;;;;8.10;2.75;;;;;;;7.35;100.00;99817.03;4938390;29;20573;-70
2022/11/21 12:30:52;;;;;;;10.02;2.80;;;;;;;7.38;100.00;99812.03;4940289;29;20023;-70
2022/11/21 12:33:21;;;;;;;10.38;2.55;;;;;;;7.40;100.00;99801.03;4948286;29;20038;-68
2022/11/21 12:36:13;;;;;;;13.07;2.80;;;;;;;7.39;100.00;99781.34;4957182;28;20090;-71
2022/11/21 12:39:03;;;;;;;10.00;3.70;;;;;;;7.43;100.00;99787.94;4957436;28;20027;-69
2022/11/21 12:45:23;;;;;;;8.60;2.50;;;;;;;7.49;100.00;99772.75;4956835;29;20051;-71
2022/11/21 12:54:38;;;;;;;7.85;2.45;;;;;;;7.56;100.00;99748.38;4956888;29;20058;-70
2022/11/21 12:57:15;;;;;;;9.88;2.80;;;;;;;7.56;100.00;99743.00;4956748;29;20038;-70
2022/11/21 13:00:01;;;;;;;8.45;2.20;;;;;;;7.60;100.00;99739.63;4956912;28;20113;-71
2022/11/21 13:02:39;;;;;;;7.85;2.53;;;;;;;7.59;100.00;99735.31;4953787;28;20028;-71
2022/11/21 13:05:11;;;;;;;6.68;2.20;;;;;;;7.57;100.00;99725.81;4974747;28;20055;-70
2022/11/21 13:07:37;;;;;;;8.57;2.58;;;;;;;7.58;100.00;99722.88;4976191;28;20027;-70
2022/11/21 13:10:03;;;;;;;8.80;2.20;;;;;;;7.61;100.00;99711.66;4976198;28;20385;-70
2022/11/21 13:12:41;;;;;;;12.45;2.47;;;;;;;7.58;100.00;99693.28;4963586;28;20555;-70
2022/11/21 13:15:26;;;;;;;6.68;2.42;;;;;;;7.62;100.00;99682.84;4956508;29;20467;-70
2022/11/21 13:17:57;;;;;;;7.93;2.47;;;;;;;7.57;100.00;99691.63;4954992;29;20035;-70
2022/11/21 13:20:27;;;;;;;9.40;2.65;;;;;;;7.60;100.00;99693.84;4955618;29;20510;-70
2022/11/21 13:22:55;;;;;;;7.30;2.38;;;;;;;7.59;100.00;99694.91;4955407;28;20410;-70
2022/11/21 13:25:38;;;;;;;6.53;2.75;;;;;;;7.58;100.00;99692.47;4955274;28;20085;-70
2022/11/21 13:28:30;;;;;;;7.68;2.55;;;;;;;7.58;100.00;99679.00;4956257;28;20031;-70
2022/11/21 13:30:58;;;;;;;10.23;3.00;;;;;;;7.55;100.00;99677.59;4949929;29;20378;-71
2022/11/21 13:33:36;;;;;;;8.60;2.45;;;;;;;7.55;100.00;99676.75;4955583;28;20032;-70
2022/11/21 13:36:06;;;;;;;8.77;3.00;;;;;;;7.53;100.00;99668.09;4954700;29;20051;-70
2022/11/21 13:38:52;;;;;;;7.22;2.47;;;;;;;7.55;100.00;99666.81;4956275;28;20057;-70
2022/11/21 13:44:37;;;;;;;7.10;2.53;;;;;;;7.51;100.00;99654.88;4936836;29;20513;-70
2022/11/21 13:47:15;;;;;;;12.48;3.15;;;;;;;7.49;100.00;99656.16;4936875;29;20043;-70
2022/11/21 13:49:49;;;;;;;7.57;2.92;;;;;;;7.44;100.00;99646.09;4936670;29;20032;-70
2022/11/21 13:52:18;;;;;;;9.30;2.60;;;;;;;7.47;100.00;99645.63;4942027;28;20047;-70
2022/11/21 13:55:15;;;;;;;10.93;3.00;;;;;;;7.49;100.00;99630.06;4956011;29;20034;-70
2022/11/21 13:57:50;;;;;;;9.90;2.63;;;;;;;7.47;100.00;99626.78;4955933;29;20023;-69
2022/11/21 14:00:28;;;;;;;10.70;3.15;;;;;;;7.43;100.00;99625.63;4954585;29;20446;-70
2022/11/21 14:03:48;;;;;;;9.32;3.00;;;;;;;7.47;100.00;99615.19;4948516;28;20055;-70
2022/11/21 14:06:31;;;;;;;9.57;3.00;;;;;;;7.44;100.00;99608.41;4934031;29;20122;-70
2022/11/21 14:09:04;;;;;;;7.72;3.13;;;;;;;7.44;100.00;99600.31;4936528;29;20031;-70
2022/11/21 14:11:37;;;;;;;9.43;3.15;;;;;;;7.41;100.00;99596.25;4935222;29;20098;-70
2022/11/21 14:14:03;;;;;;;9.95;2.92;;;;;;;7.42;100.00;99592.50;4954351;28;20039;-70
2022/11/21 14:16:40;;;;;;;8.30;2.85;;;;;;;7.42;100.00;99586.28;4954350;29;20031;-70
2022/11/21 14:19:12;;;;;;;9.48;3.08;;;;;;;7.40;100.00;99580.34;4955509;28;20031;-70
2022/11/21 14:21:39;;;;;;;7.88;3.13;;;;;;;7.38;100.00;99579.75;4954197;28;20031;-70
2022/11/21 14:24:14;;;;;;;16.90;7.15;;;;;;;7.35;100.00;99578.34;4954848;29;20058;-70
2022/11/21 14:26:44;;;;;;;19.63;8.43;;;;;;;7.33;100.00;99574.25;4955447;29;20055;-71
2022/11/21 14:29:38;;;;;;;11.10;3.10;;;;;;;7.37;100.00;99572.75;4954895;29;20027;-70
2022/11/21 14:32:03;;;;;;;12.88;2.78;;;;;;;7.33;100.00;99566.19;4953133;29;20038;-70
2022/11/21 14:34:31;;;;;;;11.57;3.80;;;;;;;7.31;100.00;99566.41;4955003;29;20034;-70
2022/11/21 14:36:59;;;;;;;9.77;3.35;;;;;;;7.33;100.00;99567.00;4954612;28;20023;-70
2022/11/21 14:39:27;;;;;;;8.82;3.03;;;;;;;7.36;100.00;99554.94;4955097;28;20035;-70
2022/11/21 14:41:59;;;;;;;9.98;3.40;;;;;;;7.35;100.00;99542.53;4953956;29;20039;-70
2022/11/21 14:44:25;;;;;;;10.70;3.15;;;;;;;7.35;100.00;99543.38;4954280;28;20078;-71
2022/11/21 14:47:02;;;;;;;17.23;3.90;;;;;;;7.34;100.00;99538.22;4955009;29;20485;-72
2022/11/21 14:49:28;;;;;;;14.00;3.75;;;;;;;7.35;100.00;99538.00;4953807;29;20051;-70
2022/11/21 14:52:01;;;;;;;9.48;3.17;;;;;;;7.34;100.00;99530.97;4953934;28;20144;-78
2022/11/21 14:54:31;;;;;;;10.05;3.45;;;;;;;7.34;100.00;99524.78;4951728;29;20031;-70
2022/11/21 14:57:05;;;;;;;11.52;2.97;;;;;;;7.32;100.00;99524.16;4966555;28;20089;-71
2022/11/21 14:59:33;;;;;;;10.23;3.45;;;;;;;7.31;100.00;99523.34;4954851;28;20192;-70
2022/11/21 15:02:13;;;;;;;11.27;3.80;;;;;;;7.30;100.00;99502.88;4961972;28;20050;-70
2022/11/21 15:04:40;;;;;;;11.10;4.00;;;;;;;7.28;100.00;99489.66;4939553;29;20047;-71
2022/11/21 15:07:16;;;;;;;7.93;2.72;;;;;;;7.30;100.00;99496.69;4939904;29;20113;-71
2022/11/21 15:09:42;;;;;;;12.63;3.42;;;;;;;7.23;100.00;99484.19;4953438;28;20027;-70
2022/11/21 15:12:11;;;;;;;21.23;10.98;;;;;;;7.23;100.00;99475.28;4954388;29;20521;-70
2022/11/21 15:14:46;;;;;;;24.95;11.52;;;;;;;7.22;100.00;99468.28;4953497;29;20027;-70
2022/11/21 15:17:17;;;;;;;14.57;5.90;;;;;;;7.21;100.00;99472.81;4953337;28;20027;-70
2022/11/21 15:19:45;;;;;;;9.00;3.33;;;;;;;7.20;100.00;99473.06;4954777;28;20366;-70
2022/11/21 15:22:26;;;;;;;10.73;3.40;;;;;;;7.20;100.00;99465.00;4954289;28;20031;-70
2022/11/21 15:25:05;;;;;;;10.20;4.28;;;;;;;7.22;100.00;99458.31;4954740;28;20039;-70
2022/11/21 15:27:32;;;;;;;9.40;3.45;;;;;;;7.23;100.00;99459.13;4952545;29;20043;-71
2022/11/21 15:30:01;;;;;;;9.85;3.60;;;;;;;7.20;100.00;99438.09;4954329;28;20471;-70
2022/11/21 15:32:26;;;;;;;13.15;3.20;;;;;;;7.22;100.00;99439.50;4954847;28;20031;-70
2022/11/21 15:34:51;;;;;;;11.65;3.75;;;;;;;7.24;100.00;99423.91;4954813;29;20139;-74
2022/11/21 15:37:17;;;;;;;10.20;4.05;;;;;;;7.24;100.00;99415.84;4953231;29;20466;-72
2022/11/21 15:39:45;;;;;;;8.85;4.60;;;;;;;7.24;100.00;99406.97;4952069;29;20031;-71
2022/11/21 15:42:32;;;;;;;11.13;4.55;;;;;;;7.25;100.00;99404.03;4955564;28;20039;-71
2022/11/21 15:45:19;;;;;;;12.68;4.03;;;;;;;7.23;100.00;99411.53;4954157;29;20027;-71
2022/11/21 15:47:45;;;;;;;16.50;6.30;;;;;;;7.24;100.00;99401.59;4954723;28;20058;-70
2022/11/21 15:50:10;;;;;;;14.05;4.75;;;;;;;7.20;100.00;99395.88;4958060;29;20518;-70
2022/11/21 15:52:50;;;;;;;12.70;4.72;;;;;;;7.26;100.00;99399.47;4957987;29;20051;-70
2022/11/21 15:55:21;;;;;;;15.80;5.60;;;;;;;7.24;100.00;99393.50;4957734;28;20042;-70
2022/11/21 15:57:47;;;;;;;10.70;4.55;;;;;;;7.24;100.00;99388.13;4954902;28;20023;-71
2022/11/21 16:00:14;;;;;;;12.55;3.50;;;;;;;7.20;100.00;99395.88;4957957;28;20101;-69
2022/11/21 16:02:40;;;;;;;9.55;3.53;;;;;;;7.22;100.00;99392.94;4985384;28;20050;-68
2022/11/21 16:05:05;;;;;;;16.58;3.65;;;;;;;7.22;100.00;99393.75;4998995;28;20070;-68
2022/11/21 16:07:30;;;;;;;11.15;3.95;;;;;;;7.21;100.00;99389.41;4980099;28;20058;-70
2022/11/21 16:09:56;;;;;;;10.07;3.83;;;;;;;7.21;100.00;99386.72;4957793;29;20038;-68
2022/11/21 16:12:22;;;;;;;8.98;3.63;;;;;;;7.25;100.00;99387.88;4956538;29;20114;-68
2022/11/21 16:14:47;;;;;;;10.77;3.80;;;;;;;7.24;100.00;99378.19;4957620;29;20034;-68
2022/11/21 16:17:13;;;;;;;13.80;3.95;;;;;;;7.22;100.00;99364.16;4956840;29;20028;-69
2022/11/21 16:19:38;;;;;;;13.73;4.60;;;;;;;7.24;100.00;99372.78;4956467;29;20053;-69
2022/11/21 16:22:03;;;;;;;12.07;4.10;;;;;;;7.25;100.00;99363.66;4957570;28;20074;-69
2022/11/21 16:24:28;;;;;;;10.52;3.42;;;;;;;7.24;100.00;99359.34;4957424;29;20130;-68
2022/11/21 16:26:54;;;;;;;14.05;4.35;;;;;;;7.27;100.00;99358.06;4955026;29;20043;-68
2022/11/21 16:29:20;;;;;;;12.55;3.70;;;;;;;7.29;100.00;99350.53;4950114;29;20035;-67
2022/11/21 16:31:45;;;;;;;11.95;3.72;;;;;;;7.29;100.00;99350.53;4957602;28;20422;-68
2022/11/21 16:34:11;;;;;;;10.52;4.35;;;;;;;7.29;100.00;99339.78;4955706;28;20043;-68
2022/11/21 16:36:36;;;;;;;14.25;4.13;;;;;;;7.29;100.00;99334.41;4957360;28;20463;-67
2022/11/21 16:39:01;;;;;;;12.57;4.05;;;;;;;7.30;100.00;99327.16;4957137;29;20068;-68
2022/11/21 16:41:27;;;;;;;9.82;2.97;;;;;;;7.30;100.00;99319.91;4957318;29;20027;-68
2022/11/21 16:43:54;;;;;;;13.73;3.65;;;;;;;7.26;100.00;99314.19;4956205;29;20131;-68
2022/11/21 16:46:21;;;;;;;7.90;3.45;;;;;;;7.27;100.00;99313.13;4957001;28;20082;-68
2022/11/21 16:48:47;;;;;;;9.50;3.45;;;;;;;7.29;100.00;99307.50;4956898;28;20443;-67
2022/11/21 16:51:16;;;;;;;12.80;3.50;;;;;;;7.30;100.00;99302.94;4956668;28;20533;-70
2022/11/21 16:53:42;;;;;;;11.50;3.35;;;;;;;7.26;100.00;99294.53;4956541;28;20047;-70
2022/11/21 16:56:08;;;;;;;12.65;3.42;;;;;;;7.27;100.00;99294.28;4956931;29;20038;-74
2022/11/21 16:58:38;;;;;;;9.23;3.42;;;;;;;7.27;100.00;99290.78;4956805;28;20110;-72
2022/11/21 17:01:19;;;;;;;11.00;3.97;;;;;;;7.27;100.00;99283.53;4952680;28;20137;-72
2022/11/21 17:03:46;;;;;;;15.67;3.90;;;;;;;7.27;100.00;99270.06;4956141;29;20437;-77
2022/11/21 17:06:17;;;;;;;14.13;3.70;;;;;;;7.25;100.00;99274.88;4956977;28;20319;-70
2022/11/21 17:08:43;;;;;;;8.25;3.45;;;;;;;7.26;100.00;99260.38;4956845;28;20039;-72
2022/11/21 17:11:22;;;;;;;11.73;3.47;;;;;;;7.27;100.00;99262.00;4955844;28;20043;-70
2022/11/21 17:13:49;;;;;;;11.25;3.15;;;;;;;7.24;100.00;99259.78;4956743;29;20557;-69
2022/11/21 17:16:16;;;;;;;7.43;3.20;;;;;;;7.26;100.00;99259.53;4956120;29;20066;-70
2022/11/21 17:18:43;;;;;;;11.20;3.65;;;;;;;7.21;100.00;99244.13;4954631;29;20036;-71
2022/11/21 17:21:11;;;;;;;12.85;4.05;;;;;;;7.21;100.00;99246.03;4956229;29;20046;-69
2022/11/21 17:23:42;;;;;;;9.82;3.65;;;;;;;7.21;100.00;99238.75;4956534;28;20041;-69
2022/11/21 17:26:09;;;;;;;8.68;3.75;;;;;;;7.21;100.00;99240.63;4955036;29;20434;-69
2022/11/21 17:28:35;;;;;;;9.75;4.05;;;;;;;7.21;100.00;99230.69;4955314;28;20070;-69
2022/11/21 17:31:12;;;;;;;9.52;4.00;;;;;;;7.20;100.00;99226.38;4955049;29;20055;-69
2022/11/21 17:33:38;;;;;;;11.48;3.85;;;;;;;7.19;100.00;99224.75;4951349;29;20040;-69
2022/11/21 17:36:04;;;;;;;10.25;3.85;;;;;;;7.17;100.00;99226.03;4937067;29;20035;-69
2022/11/21 17:38:30;;;;;;;10.40;3.85;;;;;;;7.16;100.00;99217.16;4936868;29;20114;-69
2022/11/21 17:41:03;;;;;;;10.88;4.13;;;;;;;7.16;100.00;99219.84;4937075;29;20540;-69
2022/11/21 17:43:29;;;;;;;13.45;4.05;;;;;;;7.13;100.00;99206.88;4951767;29;20050;-69
2022/11/21 17:45:58;;;;;;;10.30;4.30;;;;;;;7.15;100.00;99202.06;4956171;28;20035;-69
2022/11/21 17:48:24;;;;;;;8.85;3.88;;;;;;;7.15;100.00;99209.31;4954733;29;20035;-69
2022/11/21 17:50:57;;;;;;;8.82;4.03;;;;;;;7.11;100.00;99209.00;4954880;29;20038;-69
2022/11/21 17:53:23;;;;;;;12.85;4.20;;;;;;;7.08;100.00;99207.63;4954900;28;20051;-69
2022/11/21 17:55:56;;;;;;;11.00;3.53;;;;;;;7.07;100.00;99219.41;4955342;29;20114;-69
2022/11/21 17:58:21;;;;;;;10.07;3.97;;;;;;;7.11;100.00;99214.38;4955655;28;20123;-70
2022/11/21 18:00:46;;;;;;;9.05;3.67;;;;;;;7.12;100.00;99217.88;4953828;28;20227;-71
2022/11/21 18:03:12;;;;;;;10.50;4.43;;;;;;;7.10;100.00;99207.38;4961081;28;20470;-70
2022/11/21 18:05:37;;;;;;;12.05;4.38;;;;;;;7.12;100.00;99207.94;4955548;29;20030;-71
2022/11/21 18:08:02;;;;;;;11.60;4.53;;;;;;;7.11;100.00;99211.69;4955345;28;20031;-70
2022/11/21 18:10:27;;;;;;;12.48;5.07;;;;;;;7.13;100.00;99201.50;4955023;28;20027;-69
2022/11/21 18:12:53;;;;;;;11.02;4.40;;;;;;;7.13;100.00;99204.19;4954990;29;20027;-70
2022/11/21 18:15:18;;;;;;;13.23;5.10;;;;;;;7.13;100.00;99190.75;4954231;29;20039;-70
2022/11/21 18:17:43;;;;;;;12.50;3.92;;;;;;;7.15;100.00;99183.22;4955529;29;20027;-71
2022/11/21 18:20:09;;;;;;;10.70;4.70;;;;;;;7.12;100.00;99172.16;4955593;29;20039;-70
2022/11/21 18:22:34;;;;;;;12.77;4.63;;;;;;;7.07;100.00;99168.31;4954013;28;20031;-71
2022/11/21 18:24:59;;;;;;;13.77;4.80;;;;;;;7.04;100.00;99165.31;4954278;29;20035;-70
2022/11/21 18:27:26;;;;;;;12.88;4.72;;;;;;;7.01;100.00;99165.78;4955309;28;20386;-71
2022/11/21 18:29:51;;;;;;;15.90;4.90;;;;;;;6.99;100.00;99155.28;4955353;28;20035;-69